createdAt,value
2022-08-11T00:00:50.103Z,56.23
2022-08-11T00:04:52.193Z,56.38
2022-08-11T00:08:55.815Z,56.49
2022-08-11T00:13:03.242Z,56.04
2022-08-11T00:17:08.862Z,58.66
2022-08-11T00:21:12.242Z,58.17
2022-08-11T00:25:18.022Z,57.40
2022-08-11T00:29:21.470Z,57.35
2022-08-11T00:33:44.469Z,57.11
2022-08-11T00:37:54.531Z,57.27
2022-08-11T00:42:24.184Z,56.92
2022-08-11T00:46:25.600Z,56.97
2022-08-11T00:50:53.233Z,56.89
2022-08-11T00:54:57.919Z,57.27
2022-08-11T00:59:46.694Z,57.54
2022-08-11T01:04:24.776Z,57.28
2022-08-11T01:09:06.682Z,57.77
2022-08-11T01:13:26.932Z,57.65
2022-08-11T01:17:57.911Z,58.13
2022-08-11T01:22:17.918Z,58.30
2022-08-11T01:26:28.433Z,59.01
2022-08-11T01:31:06.510Z,59.58
2022-08-11T01:35:45.922Z,59.18
2022-08-11T01:40:15.266Z,59.10
2022-08-11T01:44:41.045Z,58.70
2022-08-11T01:48:56.981Z,59.24
2022-08-11T01:53:22.829Z,58.99
2022-08-11T01:58:01.041Z,59.26
2022-08-11T02:02:21.606Z,59.73
2022-08-11T02:06:58.205Z,60.22
2022-08-11T02:11:30.388Z,60.19
2022-08-11T02:15:39.371Z,60.08
2022-08-11T02:20:09.442Z,60.63
2022-08-11T02:24:34.789Z,60.66
2022-08-11T02:29:18.729Z,60.76
2022-08-11T02:33:30.381Z,60.99
2022-08-11T02:37:31.777Z,61.62
2022-08-11T02:42:35.115Z,61.82
2022-08-11T02:46:56.987Z,62.22
2022-08-11T02:51:30.227Z,62.15
2022-08-11T02:55:57.915Z,63.32
2022-08-11T03:00:10.961Z,63.65
2022-08-11T03:04:23.173Z,63.97
2022-08-11T03:08:52.409Z,63.87
2022-08-11T03:13:37.938Z,63.60
2022-08-11T03:17:58.900Z,64.06
2022-08-11T03:22:24.997Z,64.27
2022-08-11T03:26:38.590Z,65.25
2022-08-11T03:30:48.529Z,65.16
2022-08-11T03:34:51.465Z,64.92
2022-08-11T03:39:20.143Z,65.43
2022-08-11T03:43:58.674Z,64.83
2022-08-11T03:48:22.931Z,65.49
2022-08-11T03:52:59.782Z,65.08
2022-08-11T03:57:21.064Z,65.34
2022-08-11T04:02:19.327Z,65.42
2022-08-11T04:06:26.296Z,65.73
2022-08-11T04:11:04.593Z,65.76
2022-08-11T04:15:46.621Z,66.08
2022-08-11T04:19:53.815Z,66.42
2022-08-11T04:24:38.308Z,66.48
2022-08-11T04:28:58.985Z,66.69
2022-08-11T04:33:23.323Z,66.57
2022-08-11T04:37:58.985Z,66.78
2022-08-11T04:42:53.286Z,67.16
2022-08-11T04:48:04.574Z,66.83
2022-08-11T04:52:37.540Z,67.32
2022-08-11T04:57:03.566Z,67.82
2022-08-11T05:01:41.363Z,68.30
2022-08-11T05:06:20.326Z,67.86
2022-08-11T05:10:40.015Z,66.77
2022-08-11T05:15:11.369Z,66.12
2022-08-11T05:19:37.189Z,66.28
2022-08-11T05:24:07.640Z,65.85
2022-08-11T05:28:31.583Z,65.32
2022-08-11T05:33:01.773Z,64.98
2022-08-11T05:37:29.566Z,64.65
2022-08-11T05:41:50.732Z,63.47
2022-08-11T05:46:36.918Z,63.31
2022-08-11T05:50:58.771Z,62.78
2022-08-11T05:55:23.675Z,61.63
2022-08-11T05:59:28.440Z,61.02
2022-08-11T06:03:32.812Z,61.24
2022-08-11T06:07:49.274Z,60.45
2022-08-11T06:11:52.495Z,59.33
2022-08-11T06:15:55.866Z,58.29
2022-08-11T06:20:07.637Z,59.19
2022-08-11T06:24:14.683Z,58.87
2022-08-11T06:28:20.999Z,58.40
2022-08-11T06:32:32.484Z,57.74
2022-08-11T06:36:57.941Z,56.33
2022-08-11T06:41:23.453Z,56.23
2022-08-11T06:45:31.061Z,56.13
2022-08-11T06:49:55.468Z,55.21
2022-08-11T06:54:05.182Z,54.66
2022-08-11T06:58:35.044Z,53.76
2022-08-11T07:02:53.224Z,52.80
2022-08-11T07:07:41.225Z,52.44
2022-08-11T07:12:17.217Z,52.77
2022-08-11T07:16:26.671Z,52.04
2022-08-11T07:20:49.421Z,51.15
2022-08-11T07:25:21.672Z,50.26
2022-08-11T07:29:23.393Z,49.56
2022-08-11T07:34:07.618Z,49.03
2022-08-11T07:38:11.646Z,48.73
2022-08-11T07:42:15.811Z,48.32
2022-08-11T07:46:36.907Z,47.72
2022-08-11T07:51:01.404Z,47.38
2022-08-11T07:55:08.389Z,46.80
2022-08-11T07:59:59.912Z,45.78
2022-08-11T08:04:09.944Z,45.25
2022-08-11T08:08:33.195Z,45.21
2022-08-11T08:12:54.722Z,44.96
2022-08-11T08:17:16.653Z,44.87
2022-08-11T08:21:18.189Z,43.34
2022-08-11T08:25:20.061Z,42.75
2022-08-11T08:29:40.574Z,43.06
2022-08-11T08:33:42.922Z,41.62
2022-08-11T08:37:47.058Z,40.76
2022-08-11T08:41:58.124Z,40.01
2022-08-11T08:46:00.333Z,40.82
2022-08-11T08:50:16.892Z,40.35
2022-08-11T08:54:21.819Z,40.10
2022-08-11T08:58:24.846Z,39.46
2022-08-11T09:02:34.562Z,37.86
2022-08-11T09:06:40.686Z,38.33
2022-08-11T09:10:42.316Z,37.43
2022-08-11T09:15:05.963Z,36.86
2022-08-11T09:19:08.721Z,36.56
2022-08-11T09:24:07.650Z,36.92
2022-08-11T09:27:53.177Z,36.02
2022-08-11T09:31:56.011Z,35.83
2022-08-11T09:35:58.269Z,35.60
2022-08-11T09:40:18.610Z,35.20
2022-08-11T09:44:40.339Z,35.64
2022-08-11T09:48:47.163Z,34.90
2022-08-11T09:53:16.783Z,33.58
2022-08-11T09:57:31.483Z,32.96
2022-08-11T10:01:42.239Z,33.19
2022-08-11T10:06:34.039Z,32.13
2022-08-11T10:10:39.094Z,31.90
2022-08-11T10:15:08.048Z,31.17
2022-08-11T10:19:11.135Z,30.19
2022-08-11T10:23:32.184Z,30.82
2022-08-11T10:28:16.779Z,31.84
2022-08-11T10:32:15.726Z,31.74
2022-08-11T10:36:20.288Z,30.56
2022-08-11T10:40:23.571Z,30.13
2022-08-11T10:44:25.385Z,30.29
2022-08-11T10:48:29.475Z,31.26
2022-08-11T10:52:50.020Z,30.37
2022-08-11T10:57:12.825Z,29.91
2022-08-11T11:01:18.291Z,29.85
2022-08-11T11:05:29.008Z,29.74
2022-08-11T11:09:39.620Z,29.34
2022-08-11T11:13:59.637Z,28.74
2022-08-11T11:18:09.570Z,29.48
2022-08-11T11:22:33.428Z,29.06
2022-08-11T11:27:28.505Z,27.84
2022-08-11T11:31:48.718Z,27.32
2022-08-11T11:36:17.151Z,27.94
2022-08-11T11:40:21.448Z,27.76
2022-08-11T11:44:31.120Z,26.20
2022-08-11T11:48:33.767Z,26.11
2022-08-11T11:52:36.301Z,26.15
2022-08-11T11:56:38.715Z,25.66
2022-08-11T12:00:59.684Z,25.21
2022-08-11T12:05:02.070Z,25.50
2022-08-11T12:09:05.163Z,25.90
2022-08-11T12:13:25.202Z,25.55
2022-08-11T12:17:26.980Z,27.38
2022-08-11T12:21:30.125Z,26.56
2022-08-11T12:26:26.447Z,28.07
2022-08-11T12:30:29.436Z,27.47
2022-08-11T12:34:31.142Z,26.97
2022-08-11T12:38:34.998Z,26.22
2022-08-11T12:43:00.724Z,26.50
2022-08-11T12:47:06.186Z,26.55
2022-08-11T12:52:11.442Z,25.93
2022-08-11T12:56:27.450Z,24.98
2022-08-11T13:00:49.400Z,25.58
2022-08-11T13:04:54.060Z,24.85
2022-08-11T13:09:01.001Z,24.13
2022-08-11T13:13:54.989Z,24.67
2022-08-11T13:17:43.680Z,24.50
2022-08-11T13:21:47.534Z,23.75
2022-08-11T13:25:49.779Z,24.85
2022-08-11T13:30:12.372Z,24.19
2022-08-11T13:34:16.357Z,23.86
2022-08-11T13:38:22.173Z,22.42
2022-08-11T13:42:23.683Z,22.42
2022-08-11T13:46:27.289Z,21.95
2022-08-11T13:50:51.302Z,22.26
2022-08-11T13:54:53.378Z,20.69
2022-08-11T13:58:56.163Z,21.68
2022-08-11T14:02:59.153Z,22.16
2022-08-11T14:07:06.567Z,22.70
2022-08-11T14:12:23.071Z,22.89
2022-08-11T14:15:50.650Z,21.93
2022-08-11T14:19:53.621Z,21.96
2022-08-11T14:23:55.323Z,21.08
2022-08-11T14:28:32.066Z,21.29
2022-08-11T14:32:20.978Z,20.53
2022-08-11T14:36:25.602Z,21.41
2022-08-11T14:40:45.698Z,21.36
2022-08-11T14:45:09.415Z,20.72
2022-08-11T14:49:12.710Z,20.95
2022-08-11T14:53:16.088Z,20.81
2022-08-11T14:57:54.357Z,19.41
2022-08-11T15:02:02.504Z,19.30
2022-08-11T15:06:05.329Z,20.13
2022-08-11T15:10:13.146Z,18.94
2022-08-11T15:14:35.770Z,20.49
2022-08-11T15:18:37.929Z,20.90
2022-08-11T15:22:57.897Z,20.42
2022-08-11T15:27:20.196Z,19.67
2022-08-11T15:31:27.723Z,20.00
2022-08-11T15:35:49.417Z,18.60
2022-08-11T15:40:31.586Z,19.92
2022-08-11T15:45:02.659Z,19.69
2022-08-11T15:49:12.335Z,18.81
2022-08-11T15:53:34.716Z,20.15
2022-08-11T15:57:55.784Z,20.36
2022-08-11T16:02:31.004Z,20.26
2022-08-11T16:06:35.125Z,20.15
2022-08-11T16:10:38.051Z,21.96
2022-08-11T16:15:14.703Z,21.23
2022-08-11T16:19:23.201Z,21.26
2022-08-11T16:23:28.239Z,22.09
2022-08-11T16:27:34.043Z,21.47
2022-08-11T16:31:38.152Z,21.09
2022-08-11T16:35:59.163Z,21.26
2022-08-11T16:40:01.120Z,20.87
2022-08-11T16:44:32.937Z,21.44
2022-08-11T16:48:41.550Z,21.73
2022-08-11T16:52:43.424Z,21.36
2022-08-11T16:56:49.168Z,20.75
2022-08-11T17:00:51.887Z,20.06
2022-08-11T17:05:16.244Z,20.68
2022-08-11T17:09:41.513Z,20.49
2022-08-11T17:13:56.572Z,20.29
2022-08-11T17:18:00.601Z,19.76
2022-08-11T17:22:22.152Z,19.50
2022-08-11T17:26:49.728Z,20.41
2022-08-11T17:31:20.001Z,20.43
2022-08-11T17:35:31.024Z,20.66
2022-08-11T17:39:33.654Z,19.97
2022-08-11T17:43:55.141Z,21.05
2022-08-11T17:48:17.510Z,21.04
2022-08-11T17:52:38.808Z,21.79
2022-08-11T17:56:59.172Z,23.53
2022-08-11T18:01:03.168Z,24.57
2022-08-11T18:05:20.156Z,24.84
2022-08-11T18:09:41.805Z,25.70
2022-08-11T18:14:03.589Z,26.92
2022-08-11T18:18:23.884Z,27.13
2022-08-11T18:22:49.147Z,27.34
2022-08-11T18:27:11.082Z,27.28
2022-08-11T18:31:34.582Z,28.21
2022-08-11T18:35:55.966Z,29.15
2022-08-11T18:40:20.259Z,30.75
2022-08-11T18:44:47.522Z,30.35
2022-08-11T18:49:35.493Z,31.11
2022-08-11T18:54:13.469Z,31.42
2022-08-11T18:58:40.331Z,30.41
2022-08-11T19:03:02.183Z,30.84
2022-08-11T19:07:24.473Z,31.33
2022-08-11T19:11:47.250Z,31.96
2022-08-11T19:16:08.327Z,32.11
2022-08-11T19:20:33.434Z,33.11
2022-08-11T19:24:57.369Z,33.73
2022-08-11T19:30:08.040Z,33.97
2022-08-11T19:34:09.998Z,33.92
2022-08-11T19:38:31.767Z,33.85
2022-08-11T19:42:52.093Z,34.89
2022-08-11T19:47:13.412Z,35.19
2022-08-11T19:51:34.308Z,35.46
2022-08-11T19:55:57.222Z,35.88
2022-08-11T20:00:18.338Z,36.10
2022-08-11T20:04:38.740Z,37.08
2022-08-11T20:09:01.706Z,37.46
2022-08-11T20:13:22.064Z,37.76
2022-08-11T20:17:45.247Z,37.14
2022-08-11T20:22:08.832Z,37.61
2022-08-11T20:26:31.479Z,38.25
2022-08-11T20:30:53.516Z,38.30
2022-08-11T20:35:16.453Z,38.24
2022-08-11T20:39:37.485Z,38.42
2022-08-11T20:44:07.657Z,38.27
2022-08-11T20:48:29.770Z,38.15
2022-08-11T20:52:51.216Z,38.30
2022-08-11T20:57:12.762Z,39.17
2022-08-11T21:01:41.367Z,39.55
2022-08-11T21:06:04.822Z,39.63
2022-08-11T21:10:31.628Z,40.36
2022-08-11T21:14:53.537Z,40.43
2022-08-11T21:20:00.764Z,40.08
2022-08-11T21:24:06.477Z,39.27
2022-08-11T21:28:29.260Z,41.09
2022-08-11T21:32:50.608Z,41.91
2022-08-11T21:37:11.738Z,41.83
2022-08-11T21:41:33.524Z,41.91
2022-08-11T21:45:56.829Z,42.10
2022-08-11T21:50:16.810Z,42.54
2022-08-11T21:54:37.537Z,43.39
2022-08-11T21:59:06.869Z,43.54
2022-08-11T22:03:27.853Z,43.84
2022-08-11T22:07:50.737Z,44.27
2022-08-11T22:12:34.035Z,44.85
2022-08-11T22:16:50.899Z,45.85
2022-08-11T22:21:11.184Z,45.62
2022-08-11T22:25:38.705Z,46.82
2022-08-11T22:29:58.529Z,47.25
2022-08-11T22:34:18.733Z,47.40
2022-08-11T22:38:40.649Z,48.31
2022-08-11T22:43:01.811Z,49.30
2022-08-11T22:47:23.603Z,49.54
2022-08-11T22:51:48.403Z,49.95
2022-08-11T22:56:09.334Z,51.06
2022-08-11T23:00:30.432Z,50.00
2022-08-11T23:04:53.119Z,49.70
2022-08-11T23:09:14.901Z,50.17
2022-08-11T23:13:35.218Z,52.65
2022-08-11T23:17:55.591Z,53.10
2022-08-11T23:22:15.961Z,52.59
2022-08-11T23:26:38.813Z,54.72
2022-08-11T23:30:59.036Z,53.35
2022-08-11T23:35:40.493Z,52.67
2022-08-11T23:40:01.348Z,53.74
2022-08-11T23:44:23.402Z,53.64
2022-08-11T23:48:46.896Z,53.91
2022-08-11T23:53:07.739Z,54.08
2022-08-11T23:57:27.954Z,54.03
